sensor_id;sensor_type;location;lat;lon;timestamp;P1;P2;P0
76420;PMS5003;65253;52.354;13.614;2023-02-08T00:00:00;49;37;
76420;PMS5003;65253;52.354;13.614;2023-02-08T00:04:00;47;31;
76420;PMS5003;65253;52.354;13.614;2023-02-08T00:08:00;51;38;
76420;PMS5003;65253;52.354;13.614;2023-02-08T00:12:00;43;36;
76420;PMS5003;65253;52.354;13.614;2023-02-08T00:16:00;52;39;
76420;PMS5003;65253;52.354;13.614;2023-02-08T00:20:00;44;36;
76420;PMS5003;65253;52.354;13.614;2023-02-08T00:24:00;45;34;
76420;PMS5003;65253;52.354;13.614;2023-02-08T00:28:03;49;37;
76420;PMS5003;65253;52.354;13.614;2023-02-08T00:32:00;38;31;
76420;PMS5003;65253;52.354;13.614;2023-02-08T00:36:01;36;30;
76420;PMS5003;65253;52.354;13.614;2023-02-08T00:40:00;37;31;
76420;PMS5003;65253;52.354;13.614;2023-02-08T00:44:00;49;28;
76420;PMS5003;65253;52.354;13.614;2023-02-08T00:48:00;50;32;
76420;PMS5003;65253;52.354;13.614;2023-02-08T00:52:00;35;27;
76420;PMS5003;65253;52.354;13.614;2023-02-08T00:56:00;39;29;
76420;PMS5003;65253;52.354;13.614;2023-02-08T01:00:00;27;23;
76420;PMS5003;65253;52.354;13.614;2023-02-08T01:04:00;39;26;
76420;PMS5003;65253;52.354;13.614;2023-02-08T01:08:00;25;20;
76420;PMS5003;65253;52.354;13.614;2023-02-08T01:12:00;30;24;
76420;PMS5003;65253;52.354;13.614;2023-02-08T01:16:04;31;24;
76420;PMS5003;65253;52.354;13.614;2023-02-08T01:20:00;35;27;
76420;PMS5003;65253;52.354;13.614;2023-02-08T01:24:00;30;23;
76420;PMS5003;65253;52.354;13.614;2023-02-08T01:28:00;35;30;
76420;PMS5003;65253;52.354;13.614;2023-02-08T01:32:00;29;27;
76420;PMS5003;65253;52.354;13.614;2023-02-08T01:36:00;34;23;
76420;PMS5003;65253;52.354;13.614;2023-02-08T01:40:00;37;24;
76420;PMS5003;65253;52.354;13.614;2023-02-08T01:44:03;26;24;
76420;PMS5003;65253;52.354;13.614;2023-02-08T01:48:02;24;21;
76420;PMS5003;65253;52.354;13.614;2023-02-08T01:52:01;26;20;
76420;PMS5003;65253;52.354;13.614;2023-02-08T01:56:00;21;17;
76420;PMS5003;65253;52.354;13.614;2023-02-08T02:00:01;29;20;
76420;PMS5003;65253;52.354;13.614;2023-02-08T02:04:00;19;18;
76420;PMS5003;65253;52.354;13.614;2023-02-08T02:08:00;28;21;
76420;PMS5003;65253;52.354;13.614;2023-02-08T02:12:00;26;23;
76420;PMS5003;65253;52.354;13.614;2023-02-08T02:16:00;24;17;
76420;PMS5003;65253;52.354;13.614;2023-02-08T02:20:03;32;20;
76420;PMS5003;65253;52.354;13.614;2023-02-08T02:24:04;26;21;
76420;PMS5003;65253;52.354;13.614;2023-02-08T02:28:06;22;17;
76420;PMS5003;65253;52.354;13.614;2023-02-08T02:32:06;29;19;
76420;PMS5003;65253;52.354;13.614;2023-02-08T02:36:01;31;24;
76420;PMS5003;65253;52.354;13.614;2023-02-08T02:40:02;28;22;
76420;PMS5003;65253;52.354;13.614;2023-02-08T02:44:00;23;20;
76420;PMS5003;65253;52.354;13.614;2023-02-08T02:48:01;27;21;
76420;PMS5003;65253;52.354;13.614;2023-02-08T02:52:01;24;19;
76420;PMS5003;65253;52.354;13.614;2023-02-08T02:56:01;29;21;
76420;PMS5003;65253;52.354;13.614;2023-02-08T03:00:01;29;21;
76420;PMS5003;65253;52.354;13.614;2023-02-08T03:04:10;35;22;
76420;PMS5003;65253;52.354;13.614;2023-02-08T03:08:06;28;20;
76420;PMS5003;65253;52.354;13.614;2023-02-08T03:12:03;24;19;
76420;PMS5003;65253;52.354;13.614;2023-02-08T03:16:02;35;19;
76420;PMS5003;65253;52.354;13.614;2023-02-08T03:20:02;26;19;
76420;PMS5003;65253;52.354;13.614;2023-02-08T03:24:01;23;17;
76420;PMS5003;65253;52.354;13.614;2023-02-08T03:28:02;17;15;
76420;PMS5003;65253;52.354;13.614;2023-02-08T03:32:01;26;19;
76420;PMS5003;65253;52.354;13.614;2023-02-08T03:36:02;24;18;
76420;PMS5003;65253;52.354;13.614;2023-02-08T03:40:01;22;18;
76420;PMS5003;65253;52.354;13.614;2023-02-08T03:44:01;31;20;
76420;PMS5003;65253;52.354;13.614;2023-02-08T03:48:02;26;19;
76420;PMS5003;65253;52.354;13.614;2023-02-08T03:52:01;22;18;
76420;PMS5003;65253;52.354;13.614;2023-02-08T03:56:00;32;19;
76420;PMS5003;65253;52.354;13.614;2023-02-08T04:00:03;26;18;
76420;PMS5003;65253;52.354;13.614;2023-02-08T04:04:00;19;15;
76420;PMS5003;65253;52.354;13.614;2023-02-08T04:08:00;23;15;
76420;PMS5003;65253;52.354;13.614;2023-02-08T04:12:00;26;16;
76420;PMS5003;65253;52.354;13.614;2023-02-08T04:16:00;27;18;
76420;PMS5003;65253;52.354;13.614;2023-02-08T04:20:00;18;16;
76420;PMS5003;65253;52.354;13.614;2023-02-08T04:24:00;15;12;
76420;PMS5003;65253;52.354;13.614;2023-02-08T04:28:00;31;19;
76420;PMS5003;65253;52.354;13.614;2023-02-08T04:32:00;28;19;
76420;PMS5003;65253;52.354;13.614;2023-02-08T04:36:00;28;21;
76420;PMS5003;65253;52.354;13.614;2023-02-08T04:40:00;20;18;
76420;PMS5003;65253;52.354;13.614;2023-02-08T04:44:00;23;19;
76420;PMS5003;65253;52.354;13.614;2023-02-08T04:48:00;25;18;
76420;PMS5003;65253;52.354;13.614;2023-02-08T04:52:00;26;21;
76420;PMS5003;65253;52.354;13.614;2023-02-08T04:56:00;22;19;
76420;PMS5003;65253;52.354;13.614;2023-02-08T05:00:00;28;18;
76420;PMS5003;65253;52.354;13.614;2023-02-08T05:04:00;26;19;
76420;PMS5003;65253;52.354;13.614;2023-02-08T05:08:00;27;18;
76420;PMS5003;65253;52.354;13.614;2023-02-08T05:12:00;23;17;
76420;PMS5003;65253;52.354;13.614;2023-02-08T05:16:00;29;18;
76420;PMS5003;65253;52.354;13.614;2023-02-08T05:20:00;30;24;
76420;PMS5003;65253;52.354;13.614;2023-02-08T05:24:00;32;21;
76420;PMS5003;65253;52.354;13.614;2023-02-08T05:28:00;26;19;
76420;PMS5003;65253;52.354;13.614;2023-02-08T05:32:00;29;22;
76420;PMS5003;65253;52.354;13.614;2023-02-08T05:36:00;21;19;
76420;PMS5003;65253;52.354;13.614;2023-02-08T05:40:00;33;22;
76420;PMS5003;65253;52.354;13.614;2023-02-08T05:44:00;34;21;
76420;PMS5003;65253;52.354;13.614;2023-02-08T05:48:00;30;22;
76420;PMS5003;65253;52.354;13.614;2023-02-08T05:52:00;30;24;
76420;PMS5003;65253;52.354;13.614;2023-02-08T05:56:00;26;19;
76420;PMS5003;65253;52.354;13.614;2023-02-08T06:00:00;28;19;
76420;PMS5003;65253;52.354;13.614;2023-02-08T06:04:00;29;19;
76420;PMS5003;65253;52.354;13.614;2023-02-08T06:08:00;31;22;
76420;PMS5003;65253;52.354;13.614;2023-02-08T06:12:00;33;22;
76420;PMS5003;65253;52.354;13.614;2023-02-08T06:16:00;32;22;
76420;PMS5003;65253;52.354;13.614;2023-02-08T06:20:00;31;21;
76420;PMS5003;65253;52.354;13.614;2023-02-08T06:24:00;36;26;
76420;PMS5003;65253;52.354;13.614;2023-02-08T06:28:00;29;23;
76420;PMS5003;65253;52.354;13.614;2023-02-08T06:32:00;28;19;
76420;PMS5003;65253;52.354;13.614;2023-02-08T06:36:00;29;20;
76420;PMS5003;65253;52.354;13.614;2023-02-08T06:40:00;25;20;
76420;PMS5003;65253;52.354;13.614;2023-02-08T06:44:00;32;21;
76420;PMS5003;65253;52.354;13.614;2023-02-08T06:48:00;28;21;
76420;PMS5003;65253;52.354;13.614;2023-02-08T06:52:00;29;20;
76420;PMS5003;65253;52.354;13.614;2023-02-08T06:56:00;39;28;
76420;PMS5003;65253;52.354;13.614;2023-02-08T07:00:00;40;22;
76420;PMS5003;65253;52.354;13.614;2023-02-08T07:04:00;32;25;
76420;PMS5003;65253;52.354;13.614;2023-02-08T07:08:00;29;21;
76420;PMS5003;65253;52.354;13.614;2023-02-08T07:12:00;26;20;
76420;PMS5003;65253;52.354;13.614;2023-02-08T07:16:00;32;19;
76420;PMS5003;65253;52.354;13.614;2023-02-08T07:20:00;36;24;
76420;PMS5003;65253;52.354;13.614;2023-02-08T07:24:00;28;23;
76420;PMS5003;65253;52.354;13.614;2023-02-08T07:28:01;29;19;
76420;PMS5003;65253;52.354;13.614;2023-02-08T07:32:01;33;17;
76420;PMS5003;65253;52.354;13.614;2023-02-08T07:36:00;30;21;
76420;PMS5003;65253;52.354;13.614;2023-02-08T07:40:00;38;22;
76420;PMS5003;65253;52.354;13.614;2023-02-08T07:44:00;35;25;
76420;PMS5003;65253;52.354;13.614;2023-02-08T07:48:00;34;24;
76420;PMS5003;65253;52.354;13.614;2023-02-08T07:52:00;33;26;
76420;PMS5003;65253;52.354;13.614;2023-02-08T07:56:00;42;29;
76420;PMS5003;65253;52.354;13.614;2023-02-08T08:00:00;38;29;
76420;PMS5003;65253;52.354;13.614;2023-02-08T08:04:00;41;25;
76420;PMS5003;65253;52.354;13.614;2023-02-08T08:08:00;36;28;
76420;PMS5003;65253;52.354;13.614;2023-02-08T08:12:00;40;26;
76420;PMS5003;65253;52.354;13.614;2023-02-08T08:16:00;36;23;
76420;PMS5003;65253;52.354;13.614;2023-02-08T08:20:00;37;28;
76420;PMS5003;65253;52.354;13.614;2023-02-08T08:24:00;38;30;
76420;PMS5003;65253;52.354;13.614;2023-02-08T08:28:00;43;32;
76420;PMS5003;65253;52.354;13.614;2023-02-08T08:32:00;37;27;
76420;PMS5003;65253;52.354;13.614;2023-02-08T08:36:00;42;27;
76420;PMS5003;65253;52.354;13.614;2023-02-08T08:40:00;42;27;
76420;PMS5003;65253;52.354;13.614;2023-02-08T08:44:00;61;34;
76420;PMS5003;65253;52.354;13.614;2023-02-08T08:48:01;50;31;
76420;PMS5003;65253;52.354;13.614;2023-02-08T08:52:00;46;28;
76420;PMS5003;65253;52.354;13.614;2023-02-08T08:56:00;43;30;
76420;PMS5003;65253;52.354;13.614;2023-02-08T09:00:00;37;29;
76420;PMS5003;65253;52.354;13.614;2023-02-08T09:04:00;46;30;
76420;PMS5003;65253;52.354;13.614;2023-02-08T09:08:00;42;34;
76420;PMS5003;65253;52.354;13.614;2023-02-08T09:12:00;49;32;
76420;PMS5003;65253;52.354;13.614;2023-02-08T09:16:03;51;36;
76420;PMS5003;65253;52.354;13.614;2023-02-08T09:20:00;46;33;
76420;PMS5003;65253;52.354;13.614;2023-02-08T09:24:00;59;37;
76420;PMS5003;65253;52.354;13.614;2023-02-08T09:28:00;54;41;
76420;PMS5003;65253;52.354;13.614;2023-02-08T09:32:00;51;36;
76420;PMS5003;65253;52.354;13.614;2023-02-08T09:36:00;50;37;
76420;PMS5003;65253;52.354;13.614;2023-02-08T09:40:00;48;30;
76420;PMS5003;65253;52.354;13.614;2023-02-08T09:44:05;57;37;
76420;PMS5003;65253;52.354;13.614;2023-02-08T09:48:03;40;33;
76420;PMS5003;65253;52.354;13.614;2023-02-08T09:52:01;44;32;
76420;PMS5003;65253;52.354;13.614;2023-02-08T09:56:03;56;36;
76420;PMS5003;65253;52.354;13.614;2023-02-08T10:00:01;46;33;
76420;PMS5003;65253;52.354;13.614;2023-02-08T10:04:02;57;34;
76420;PMS5003;65253;52.354;13.614;2023-02-08T10:08:00;45;35;
76420;PMS5003;65253;52.354;13.614;2023-02-08T10:12:04;56;38;
76420;PMS5003;65253;52.354;13.614;2023-02-08T10:16:02;42;28;
76420;PMS5003;65253;52.354;13.614;2023-02-08T10:20:02;49;38;
76420;PMS5003;65253;52.354;13.614;2023-02-08T10:24:06;45;32;
76420;PMS5003;65253;52.354;13.614;2023-02-08T10:28:06;54;33;
76420;PMS5003;65253;52.354;13.614;2023-02-08T10:32:04;52;34;
76420;PMS5003;65253;52.354;13.614;2023-02-08T10:36:00;32;27;
76420;PMS5003;65253;52.354;13.614;2023-02-08T10:40:06;44;27;
76420;PMS5003;65253;52.354;13.614;2023-02-08T10:44:01;48;28;
76420;PMS5003;65253;52.354;13.614;2023-02-08T10:48:01;39;30;
76420;PMS5003;65253;52.354;13.614;2023-02-08T10:52:00;50;35;
76420;PMS5003;65253;52.354;13.614;2023-02-08T10:56:00;40;29;
76420;PMS5003;65253;52.354;13.614;2023-02-08T11:00:01;52;35;
76420;PMS5003;65253;52.354;13.614;2023-02-08T11:04:01;37;30;
76420;PMS5003;65253;52.354;13.614;2023-02-08T11:08:04;42;29;
76420;PMS5003;65253;52.354;13.614;2023-02-08T11:12:00;42;34;
76420;PMS5003;65253;52.354;13.614;2023-02-08T11:16:00;36;30;
76420;PMS5003;65253;52.354;13.614;2023-02-08T11:20:00;53;32;
76420;PMS5003;65253;52.354;13.614;2023-02-08T11:24:01;44;36;
76420;PMS5003;65253;52.354;13.614;2023-02-08T11:28:00;41;32;
76420;PMS5003;65253;52.354;13.614;2023-02-08T11:32:01;47;29;
76420;PMS5003;65253;52.354;13.614;2023-02-08T11:36:01;37;32;
76420;PMS5003;65253;52.354;13.614;2023-02-08T11:40:00;50;35;
76420;PMS5003;65253;52.354;13.614;2023-02-08T11:44:01;37;27;
76420;PMS5003;65253;52.354;13.614;2023-02-08T11:48:00;35;28;
76420;PMS5003;65253;52.354;13.614;2023-02-08T11:52:00;32;28;
76420;PMS5003;65253;52.354;13.614;2023-02-08T11:56:01;38;32;
76420;PMS5003;65253;52.354;13.614;2023-02-08T12:00:12;42;33;
76420;PMS5003;65253;52.354;13.614;2023-02-08T12:04:01;31;27;
76420;PMS5003;65253;52.354;13.614;2023-02-08T12:08:03;44;29;
76420;PMS5003;65253;52.354;13.614;2023-02-08T12:12:02;45;33;
76420;PMS5003;65253;52.354;13.614;2023-02-08T12:16:04;43;30;
76420;PMS5003;65253;52.354;13.614;2023-02-08T12:20:03;35;28;
76420;PMS5003;65253;52.354;13.614;2023-02-08T12:24:01;45;30;
76420;PMS5003;65253;52.354;13.614;2023-02-08T12:28:02;41;29;
76420;PMS5003;65253;52.354;13.614;2023-02-08T12:32:04;38;24;
76420;PMS5003;65253;52.354;13.614;2023-02-08T12:40:02;36;26;
76420;PMS5003;65253;52.354;13.614;2023-02-08T12:44:02;43;28;
76420;PMS5003;65253;52.354;13.614;2023-02-08T12:48:08;31;24;
76420;PMS5003;65253;52.354;13.614;2023-02-08T12:52:02;32;24;
76420;PMS5003;65253;52.354;13.614;2023-02-08T12:56:01;33;26;
76420;PMS5003;65253;52.354;13.614;2023-02-08T13:00:01;39;28;
76420;PMS5003;65253;52.354;13.614;2023-02-08T13:04:02;44;32;
76420;PMS5003;65253;52.354;13.614;2023-02-08T13:08:02;30;22;
76420;PMS5003;65253;52.354;13.614;2023-02-08T13:12:01;42;32;
76420;PMS5003;65253;52.354;13.614;2023-02-08T13:16:01;35;28;
76420;PMS5003;65253;52.354;13.614;2023-02-08T13:20:02;37;23;
76420;PMS5003;65253;52.354;13.614;2023-02-08T13:24:00;45;31;
76420;PMS5003;65253;52.354;13.614;2023-02-08T13:28:01;43;33;
76420;PMS5003;65253;52.354;13.614;2023-02-08T13:32:01;37;30;
76420;PMS5003;65253;52.354;13.614;2023-02-08T13:36:00;42;31;
76420;PMS5003;65253;52.354;13.614;2023-02-08T13:40:01;30;24;
76420;PMS5003;65253;52.354;13.614;2023-02-08T13:44:01;37;29;
76420;PMS5003;65253;52.354;13.614;2023-02-08T13:48:01;42;31;
76420;PMS5003;65253;52.354;13.614;2023-02-08T13:52:00;32;27;
76420;PMS5003;65253;52.354;13.614;2023-02-08T13:56:00;39;29;
76420;PMS5003;65253;52.354;13.614;2023-02-08T14:08:01;40;28;
76420;PMS5003;65253;52.354;13.614;2023-02-08T14:12:01;36;27;
76420;PMS5003;65253;52.354;13.614;2023-02-08T14:20:01;34;25;
76420;PMS5003;65253;52.354;13.614;2023-02-08T14:24:01;37;29;
76420;PMS5003;65253;52.354;13.614;2023-02-08T14:28:00;29;23;
76420;PMS5003;65253;52.354;13.614;2023-02-08T14:32:00;42;27;
76420;PMS5003;65253;52.354;13.614;2023-02-08T14:36:01;32;21;
76420;PMS5003;65253;52.354;13.614;2023-02-08T14:44:06;31;25;
76420;PMS5003;65253;52.354;13.614;2023-02-08T14:48:03;27;21;
76420;PMS5003;65253;52.354;13.614;2023-02-08T14:52:02;28;18;
76420;PMS5003;65253;52.354;13.614;2023-02-08T14:56:02;23;18;
76420;PMS5003;65253;52.354;13.614;2023-02-08T15:00:02;38;25;
76420;PMS5003;65253;52.354;13.614;2023-02-08T15:04:02;37;24;
76420;PMS5003;65253;52.354;13.614;2023-02-08T15:08:00;42;29;
76420;PMS5003;65253;52.354;13.614;2023-02-08T15:12:01;30;26;
76420;PMS5003;65253;52.354;13.614;2023-02-08T15:16:00;42;21;
76420;PMS5003;65253;52.354;13.614;2023-02-08T15:20:01;35;25;
76420;PMS5003;65253;52.354;13.614;2023-02-08T15:24:01;32;22;
76420;PMS5003;65253;52.354;13.614;2023-02-08T15:28:01;42;29;
76420;PMS5003;65253;52.354;13.614;2023-02-08T15:32:00;31;24;
76420;PMS5003;65253;52.354;13.614;2023-02-08T15:36:01;40;31;
76420;PMS5003;65253;52.354;13.614;2023-02-08T15:40:00;29;26;
76420;PMS5003;65253;52.354;13.614;2023-02-08T15:44:01;37;29;
76420;PMS5003;65253;52.354;13.614;2023-02-08T15:48:00;31;24;
76420;PMS5003;65253;52.354;13.614;2023-02-08T15:52:00;31;24;
76420;PMS5003;65253;52.354;13.614;2023-02-08T15:56:01;33;26;
76420;PMS5003;65253;52.354;13.614;2023-02-08T16:00:00;34;26;
76420;PMS5003;65253;52.354;13.614;2023-02-08T16:04:01;39;22;
76420;PMS5003;65253;52.354;13.614;2023-02-08T16:08:00;38;23;
76420;PMS5003;65253;52.354;13.614;2023-02-08T16:12:00;30;22;
76420;PMS5003;65253;52.354;13.614;2023-02-08T16:16:17;34;21;
76420;PMS5003;65253;52.354;13.614;2023-02-08T16:20:00;30;22;
76420;PMS5003;65253;52.354;13.614;2023-02-08T16:24:04;31;20;
76420;PMS5003;65253;52.354;13.614;2023-02-08T16:28:00;37;27;
76420;PMS5003;65253;52.354;13.614;2023-02-08T16:32:02;36;26;
76420;PMS5003;65253;52.354;13.614;2023-02-08T16:36:00;33;28;
76420;PMS5003;65253;52.354;13.614;2023-02-08T16:40:00;43;30;
76420;PMS5003;65253;52.354;13.614;2023-02-08T16:44:13;30;24;
76420;PMS5003;65253;52.354;13.614;2023-02-08T16:52:00;32;23;
76420;PMS5003;65253;52.354;13.614;2023-02-08T16:56:00;44;28;
76420;PMS5003;65253;52.354;13.614;2023-02-08T17:00:01;46;35;
76420;PMS5003;65253;52.354;13.614;2023-02-08T17:04:00;45;28;
76420;PMS5003;65253;52.354;13.614;2023-02-08T17:08:00;43;29;
76420;PMS5003;65253;52.354;13.614;2023-02-08T17:12:01;27;24;
76420;PMS5003;65253;52.354;13.614;2023-02-08T17:16:00;37;27;
76420;PMS5003;65253;52.354;13.614;2023-02-08T17:20:00;36;29;
76420;PMS5003;65253;52.354;13.614;2023-02-08T17:24:00;45;32;
76420;PMS5003;65253;52.354;13.614;2023-02-08T17:28:01;52;37;
76420;PMS5003;65253;52.354;13.614;2023-02-08T17:32:00;42;30;
76420;PMS5003;65253;52.354;13.614;2023-02-08T17:36:00;43;34;
76420;PMS5003;65253;52.354;13.614;2023-02-08T17:40:00;48;41;
76420;PMS5003;65253;52.354;13.614;2023-02-08T17:44:00;56;44;
76420;PMS5003;65253;52.354;13.614;2023-02-08T17:48:00;64;48;
76420;PMS5003;65253;52.354;13.614;2023-02-08T17:52:00;57;39;
76420;PMS5003;65253;52.354;13.614;2023-02-08T17:56:00;58;44;
76420;PMS5003;65253;52.354;13.614;2023-02-08T18:00:00;40;30;
76420;PMS5003;65253;52.354;13.614;2023-02-08T18:04:00;52;33;
76420;PMS5003;65253;52.354;13.614;2023-02-08T18:08:00;45;35;
76420;PMS5003;65253;52.354;13.614;2023-02-08T18:12:00;25;20;
76420;PMS5003;65253;52.354;13.614;2023-02-08T18:16:05;43;28;
76420;PMS5003;65253;52.354;13.614;2023-02-08T18:20:00;39;27;
76420;PMS5003;65253;52.354;13.614;2023-02-08T18:24:00;35;25;
76420;PMS5003;65253;52.354;13.614;2023-02-08T18:28:00;32;27;
76420;PMS5003;65253;52.354;13.614;2023-02-08T18:32:01;36;25;
76420;PMS5003;65253;52.354;13.614;2023-02-08T18:36:00;49;31;
76420;PMS5003;65253;52.354;13.614;2023-02-08T18:40:00;32;24;
76420;PMS5003;65253;52.354;13.614;2023-02-08T18:44:00;51;31;
76420;PMS5003;65253;52.354;13.614;2023-02-08T18:48:00;45;32;
76420;PMS5003;65253;52.354;13.614;2023-02-08T18:52:00;35;28;
76420;PMS5003;65253;52.354;13.614;2023-02-08T18:56:00;40;29;
76420;PMS5003;65253;52.354;13.614;2023-02-08T19:00:00;35;30;
76420;PMS5003;65253;52.354;13.614;2023-02-08T19:04:00;36;25;
76420;PMS5003;65253;52.354;13.614;2023-02-08T19:08:00;40;24;
76420;PMS5003;65253;52.354;13.614;2023-02-08T19:12:00;45;34;
76420;PMS5003;65253;52.354;13.614;2023-02-08T19:16:00;44;31;
76420;PMS5003;65253;52.354;13.614;2023-02-08T19:20:00;38;24;
76420;PMS5003;65253;52.354;13.614;2023-02-08T19:24:00;34;27;
76420;PMS5003;65253;52.354;13.614;2023-02-08T19:28:00;34;26;
76420;PMS5003;65253;52.354;13.614;2023-02-08T19:32:00;33;25;
76420;PMS5003;65253;52.354;13.614;2023-02-08T19:36:04;31;25;
76420;PMS5003;65253;52.354;13.614;2023-02-08T19:40:00;39;27;
76420;PMS5003;65253;52.354;13.614;2023-02-08T19:44:01;37;24;
76420;PMS5003;65253;52.354;13.614;2023-02-08T19:48:01;36;24;
76420;PMS5003;65253;52.354;13.614;2023-02-08T19:52:00;30;25;
76420;PMS5003;65253;52.354;13.614;2023-02-08T19:56:01;40;26;
76420;PMS5003;65253;52.354;13.614;2023-02-08T20:00:03;34;21;
76420;PMS5003;65253;52.354;13.614;2023-02-08T20:04:01;36;21;
76420;PMS5003;65253;52.354;13.614;2023-02-08T20:08:00;37;27;
76420;PMS5003;65253;52.354;13.614;2023-02-08T20:12:00;36;28;
76420;PMS5003;65253;52.354;13.614;2023-02-08T20:16:00;41;29;
76420;PMS5003;65253;52.354;13.614;2023-02-08T20:20:00;38;24;
76420;PMS5003;65253;52.354;13.614;2023-02-08T20:24:00;29;24;
76420;PMS5003;65253;52.354;13.614;2023-02-08T20:28:01;26;19;
76420;PMS5003;65253;52.354;13.614;2023-02-08T20:32:00;33;19;
76420;PMS5003;65253;52.354;13.614;2023-02-08T20:36:04;32;23;
76420;PMS5003;65253;52.354;13.614;2023-02-08T20:40:00;34;25;
76420;PMS5003;65253;52.354;13.614;2023-02-08T20:44:00;31;24;
76420;PMS5003;65253;52.354;13.614;2023-02-08T20:48:00;33;23;
76420;PMS5003;65253;52.354;13.614;2023-02-08T20:52:00;34;23;
76420;PMS5003;65253;52.354;13.614;2023-02-08T20:56:03;33;20;
76420;PMS5003;65253;52.354;13.614;2023-02-08T21:00:00;29;23;
76420;PMS5003;65253;52.354;13.614;2023-02-08T21:04:00;29;24;
76420;PMS5003;65253;52.354;13.614;2023-02-08T21:08:00;23;16;
76420;PMS5003;65253;52.354;13.614;2023-02-08T21:12:00;31;21;
76420;PMS5003;65253;52.354;13.614;2023-02-08T21:16:02;25;21;
76420;PMS5003;65253;52.354;13.614;2023-02-08T21:20:00;29;17;
76420;PMS5003;65253;52.354;13.614;2023-02-08T21:24:00;27;18;
76420;PMS5003;65253;52.354;13.614;2023-02-08T21:28:01;20;14;
76420;PMS5003;65253;52.354;13.614;2023-02-08T21:32:01;30;18;
76420;PMS5003;65253;52.354;13.614;2023-02-08T21:36:00;31;19;
76420;PMS5003;65253;52.354;13.614;2023-02-08T21:40:00;32;18;
76420;PMS5003;65253;52.354;13.614;2023-02-08T21:44:01;29;19;
76420;PMS5003;65253;52.354;13.614;2023-02-08T21:48:00;27;19;
76420;PMS5003;65253;52.354;13.614;2023-02-08T21:52:00;23;16;
76420;PMS5003;65253;52.354;13.614;2023-02-08T21:56:00;23;15;
76420;PMS5003;65253;52.354;13.614;2023-02-08T22:00:00;25;20;
76420;PMS5003;65253;52.354;13.614;2023-02-08T22:04:00;24;16;
76420;PMS5003;65253;52.354;13.614;2023-02-08T22:08:00;23;16;
76420;PMS5003;65253;52.354;13.614;2023-02-08T22:12:00;23;17;
76420;PMS5003;65253;52.354;13.614;2023-02-08T22:16:05;24;17;
76420;PMS5003;65253;52.354;13.614;2023-02-08T22:20:00;23;13;
76420;PMS5003;65253;52.354;13.614;2023-02-08T22:24:00;20;14;
76420;PMS5003;65253;52.354;13.614;2023-02-08T22:28:00;16;13;
76420;PMS5003;65253;52.354;13.614;2023-02-08T22:32:00;26;15;
76420;PMS5003;65253;52.354;13.614;2023-02-08T22:36:04;21;17;
76420;PMS5003;65253;52.354;13.614;2023-02-08T22:40:00;13;13;
76420;PMS5003;65253;52.354;13.614;2023-02-08T22:44:01;20;14;
76420;PMS5003;65253;52.354;13.614;2023-02-08T22:48:00;17;17;
76420;PMS5003;65253;52.354;13.614;2023-02-08T22:52:00;18;16;
76420;PMS5003;65253;52.354;13.614;2023-02-08T22:56:00;21;18;
76420;PMS5003;65253;52.354;13.614;2023-02-08T23:00:00;20;17;
76420;PMS5003;65253;52.354;13.614;2023-02-08T23:04:00;18;13;
76420;PMS5003;65253;52.354;13.614;2023-02-08T23:08:00;23;16;
76420;PMS5003;65253;52.354;13.614;2023-02-08T23:12:00;21;16;
76420;PMS5003;65253;52.354;13.614;2023-02-08T23:16:00;25;14;
76420;PMS5003;65253;52.354;13.614;2023-02-08T23:20:00;20;14;
76420;PMS5003;65253;52.354;13.614;2023-02-08T23:24:00;22;15;
76420;PMS5003;65253;52.354;13.614;2023-02-08T23:28:00;24;15;
76420;PMS5003;65253;52.354;13.614;2023-02-08T23:32:00;21;16;
76420;PMS5003;65253;52.354;13.614;2023-02-08T23:36:03;19;15;
76420;PMS5003;65253;52.354;13.614;2023-02-08T23:40:00;20;14;
76420;PMS5003;65253;52.354;13.614;2023-02-08T23:44:00;18;16;
76420;PMS5003;65253;52.354;13.614;2023-02-08T23:48:00;24;16;
76420;PMS5003;65253;52.354;13.614;2023-02-08T23:52:00;14;10;
76420;PMS5003;65253;52.354;13.614;2023-02-08T23:56:01;21;13;
